createdAt,value
2024-04-25T00:01:22.745Z,75.25
2024-04-25T00:03:50.211Z,70.33
2024-04-25T00:06:17.557Z,75.77
2024-04-25T00:08:44.758Z,75.17
2024-04-25T00:11:12.005Z,74.89
2024-04-25T00:13:39.175Z,74.84
2024-04-25T00:16:06.386Z,75.01
2024-04-25T00:18:33.475Z,75.04
2024-04-25T00:21:02.267Z,75.13
2024-04-25T00:23:30.034Z,74.88
2024-04-25T00:25:57.276Z,74.99
2024-04-25T00:28:24.388Z,74.76
2024-04-25T00:30:52.250Z,74.95
2024-04-25T00:33:19.666Z,74.84
2024-04-25T00:35:48.272Z,74.92
2024-04-25T00:38:15.440Z,78.56
2024-04-25T00:40:42.590Z,75.81
2024-04-25T00:43:09.679Z,75.18
2024-04-25T00:45:36.840Z,74.99
2024-04-25T00:48:06.635Z,74.95
2024-04-25T00:50:36.110Z,75.00
2024-04-25T00:53:04.497Z,75.11
2024-04-25T00:55:32.118Z,75.02
2024-04-25T00:58:05.200Z,73.92
2024-04-25T01:00:34.374Z,75.07
2024-04-25T01:03:02.081Z,74.68
2024-04-25T01:05:29.927Z,75.23
2024-04-25T01:07:57.174Z,75.11
2024-04-25T01:10:24.296Z,74.91
2024-04-25T01:12:51.490Z,74.87
2024-04-25T01:15:18.587Z,74.81
2024-04-25T01:17:45.839Z,75.12
2024-04-25T01:20:13.091Z,74.95
2024-04-25T01:22:48.883Z,74.87
2024-04-25T01:25:16.391Z,74.69
2024-04-25T01:27:45.045Z,74.32
2024-04-25T01:30:12.471Z,74.31
2024-04-25T01:32:41.535Z,68.96
2024-04-25T01:35:11.266Z,76.52
2024-04-25T01:37:38.435Z,75.15
2024-04-25T01:40:05.857Z,74.72
2024-04-25T01:42:33.104Z,75.01
2024-04-25T01:45:00.312Z,71.38
2024-04-25T01:47:27.629Z,74.99
2024-04-25T01:49:54.816Z,75.28
2024-04-25T01:52:22.105Z,74.81
2024-04-25T01:54:49.276Z,74.54
2024-04-25T01:57:16.386Z,74.62
2024-04-25T01:59:43.564Z,69.15
2024-04-25T02:02:10.715Z,75.95
2024-04-25T02:04:37.827Z,74.78
2024-04-25T02:07:08.526Z,75.34
2024-04-25T02:09:35.609Z,74.99
2024-04-25T02:12:02.971Z,74.52
2024-04-25T02:14:30.119Z,70.02
2024-04-25T02:16:57.220Z,74.81
2024-04-25T02:19:25.731Z,74.80
2024-04-25T02:22:11.456Z,75.04
2024-04-25T02:24:57.399Z,74.79
2024-04-25T02:27:24.690Z,68.85
2024-04-25T02:29:51.856Z,80.17
2024-04-25T02:32:19.143Z,75.80
2024-04-25T02:34:46.404Z,75.23
2024-04-25T02:37:13.559Z,75.09
2024-04-25T02:39:41.328Z,74.94
2024-04-25T02:42:08.452Z,74.90
2024-04-25T02:44:35.933Z,74.54
2024-04-25T02:47:03.153Z,74.70
2024-04-25T02:49:30.267Z,74.59
2024-04-25T02:51:57.391Z,74.48
2024-04-25T02:54:24.522Z,74.78
2024-04-25T02:56:51.610Z,74.32
2024-04-25T02:59:18.780Z,74.85
2024-04-25T03:01:45.889Z,74.62
2024-04-25T03:04:13.207Z,74.40
2024-04-25T03:06:40.364Z,73.77
2024-04-25T03:09:10.152Z,77.08
2024-04-25T03:11:37.612Z,75.39
2024-04-25T03:14:05.415Z,74.98
2024-04-25T03:16:32.579Z,74.49
2024-04-25T03:18:59.942Z,74.49
2024-04-25T03:21:27.134Z,74.72
2024-04-25T03:23:54.283Z,74.75
2024-04-25T03:26:21.492Z,74.74
2024-04-25T03:28:48.621Z,74.80
2024-04-25T03:31:19.244Z,74.30
2024-04-25T03:33:48.303Z,74.37
2024-04-25T03:36:15.441Z,74.61
2024-04-25T03:38:42.675Z,74.07
2024-04-25T03:41:15.960Z,74.33
2024-04-25T03:43:43.091Z,74.34
2024-04-25T03:46:10.236Z,74.42
2024-04-25T03:48:37.475Z,74.51
2024-04-25T03:51:04.870Z,74.21
2024-04-25T03:53:32.022Z,74.45
2024-04-25T03:55:59.138Z,74.42
2024-04-25T03:58:26.227Z,74.29
2024-04-25T04:00:53.535Z,74.29
2024-04-25T04:03:20.815Z,74.40
2024-04-25T04:05:47.988Z,74.37
2024-04-25T04:08:15.580Z,74.29
2024-04-25T04:10:45.112Z,74.13
2024-04-25T04:13:12.797Z,74.15
2024-04-25T04:15:40.014Z,74.50
2024-04-25T04:18:07.306Z,74.30
2024-04-25T04:20:35.808Z,74.03
2024-04-25T04:23:02.985Z,73.96
2024-04-25T04:25:30.110Z,74.03
2024-04-25T04:27:57.203Z,75.30
2024-04-25T04:30:24.358Z,74.74
2024-04-25T04:32:51.723Z,74.37
2024-04-25T04:35:18.951Z,74.30
2024-04-25T04:37:46.079Z,74.36
2024-04-25T04:40:13.215Z,74.55
2024-04-25T04:42:40.430Z,74.35
2024-04-25T04:45:07.900Z,74.38
2024-04-25T04:47:35.471Z,74.35
2024-04-25T04:50:02.704Z,74.20
2024-04-25T04:52:33.016Z,73.87
2024-04-25T04:55:00.576Z,74.03
2024-04-25T04:57:27.885Z,74.32
2024-04-25T04:59:55.072Z,68.59
2024-04-25T05:02:22.254Z,74.95
2024-04-25T05:04:49.478Z,74.52
2024-04-25T05:07:16.610Z,74.21
2024-04-25T05:09:43.729Z,74.29
2024-04-25T05:12:11.069Z,73.99
2024-04-25T05:14:38.513Z,74.47
2024-04-25T05:17:06.444Z,74.34
2024-04-25T05:19:33.653Z,74.27
2024-04-25T05:22:00.749Z,74.30
2024-04-25T05:24:27.863Z,74.58
2024-04-25T05:26:55.033Z,74.45
2024-04-25T05:29:22.194Z,73.93
2024-04-25T05:31:49.350Z,73.99
2024-04-25T05:34:16.458Z,74.11
2024-04-25T05:36:43.635Z,69.94
2024-04-25T05:39:10.766Z,74.19
2024-04-25T05:41:37.980Z,74.33
2024-04-25T05:44:05.259Z,74.47
2024-04-25T05:46:32.441Z,74.59
2024-04-25T05:48:59.609Z,74.52
2024-04-25T05:51:26.936Z,74.52
2024-04-25T05:53:54.108Z,74.36
2024-04-25T05:56:21.306Z,74.58
2024-04-25T05:58:49.974Z,74.41
2024-04-25T06:01:19.197Z,74.41
2024-04-25T06:03:47.026Z,74.16
2024-04-25T06:06:14.256Z,70.33
2024-04-25T06:08:41.645Z,76.49
2024-04-25T06:11:12.031Z,70.56
2024-04-25T06:13:39.422Z,75.14
2024-04-25T06:16:07.298Z,69.63
2024-04-25T06:18:34.456Z,70.82
2024-04-25T06:21:01.613Z,69.83
2024-04-25T06:23:28.836Z,75.61
2024-04-25T06:25:55.991Z,69.50
2024-04-25T06:28:23.099Z,77.86
2024-04-25T06:30:50.197Z,75.66
2024-04-25T06:33:17.437Z,77.65
2024-04-25T06:35:44.812Z,76.39
2024-04-25T06:38:15.808Z,76.01
2024-04-25T06:40:46.332Z,77.13
2024-04-25T06:43:13.652Z,75.46
2024-04-25T06:45:41.481Z,78.98
2024-04-25T06:48:12.697Z,76.14
2024-04-25T06:50:40.154Z,80.71
2024-04-25T06:53:07.430Z,77.60
2024-04-25T06:55:34.593Z,76.54
2024-04-25T06:58:01.737Z,72.64
2024-04-25T07:00:28.948Z,76.06
2024-04-25T07:02:56.200Z,76.97
2024-04-25T07:05:23.480Z,77.01
2024-04-25T07:07:50.907Z,76.31
2024-04-25T07:10:18.334Z,75.19
2024-04-25T07:12:45.694Z,74.70
2024-04-25T07:15:12.891Z,73.81
2024-04-25T07:17:40.310Z,77.58
2024-04-25T07:20:08.844Z,73.54
2024-04-25T07:22:36.056Z,74.25
2024-04-25T07:25:03.176Z,76.50
2024-04-25T07:27:31.784Z,75.09
2024-04-25T07:29:59.278Z,73.63
2024-04-25T07:32:26.597Z,73.94
2024-04-25T07:34:53.759Z,73.91
2024-04-25T07:37:25.220Z,74.77
2024-04-25T07:39:52.365Z,74.45
2024-04-25T07:42:19.528Z,75.54
2024-04-25T07:44:48.050Z,74.65
2024-04-25T07:47:15.198Z,75.79
2024-04-25T07:49:42.360Z,71.75
2024-04-25T07:52:09.600Z,69.66
2024-04-25T07:54:36.767Z,70.68
2024-04-25T07:57:03.900Z,69.91
2024-04-25T07:59:31.107Z,68.86
2024-04-25T08:01:58.245Z,69.87
2024-04-25T08:04:25.448Z,66.67
2024-04-25T08:06:52.617Z,70.61
2024-04-25T08:09:19.751Z,65.14
2024-04-25T08:11:46.973Z,67.89
2024-04-25T08:14:14.143Z,73.29
2024-04-25T08:16:41.350Z,70.32
2024-04-25T08:19:08.631Z,72.37
2024-04-25T08:21:36.752Z,70.92
2024-04-25T08:24:03.938Z,76.48
2024-04-25T08:26:31.073Z,68.73
2024-04-25T08:28:58.187Z,73.61
2024-04-25T08:31:25.387Z,76.31
2024-04-25T08:33:52.659Z,76.47
2024-04-25T08:36:20.991Z,72.69
2024-04-25T08:38:51.035Z,71.68
2024-04-25T08:41:18.640Z,71.23
2024-04-25T08:43:46.374Z,72.34
2024-04-25T08:46:17.386Z,69.10
2024-04-25T08:48:48.115Z,71.11
2024-04-25T08:51:18.527Z,69.80
2024-04-25T08:53:46.596Z,70.92
2024-04-25T08:56:14.829Z,70.60
2024-04-25T08:58:42.153Z,69.45
2024-04-25T09:01:09.436Z,68.15
2024-04-25T09:03:36.681Z,66.02
2024-04-25T09:06:03.876Z,66.88
2024-04-25T09:08:31.081Z,66.45
2024-04-25T09:11:00.579Z,66.74
2024-04-25T09:13:28.044Z,65.76
2024-04-25T09:15:55.995Z,69.88
2024-04-25T09:18:24.778Z,66.22
2024-04-25T09:20:52.939Z,64.88
2024-04-25T09:23:20.077Z,64.61
2024-04-25T09:25:47.264Z,73.91
2024-04-25T09:28:14.808Z,67.40
2024-04-25T09:30:42.077Z,67.59
2024-04-25T09:33:09.496Z,71.62
2024-04-25T09:35:46.091Z,67.35
2024-04-25T09:38:13.654Z,73.94
2024-04-25T09:40:40.779Z,69.49
2024-04-25T09:43:08.043Z,65.42
2024-04-25T09:45:37.740Z,63.43
2024-04-25T09:48:10.602Z,75.30
2024-04-25T09:50:45.336Z,75.73
2024-04-25T09:53:15.960Z,66.00
2024-04-25T09:55:47.035Z,66.09
2024-04-25T09:58:30.067Z,65.56
2024-04-25T10:00:58.327Z,65.78
2024-04-25T10:03:25.593Z,67.33
2024-04-25T10:05:53.052Z,64.94
2024-04-25T10:08:20.714Z,76.46
2024-04-25T10:10:47.994Z,77.12
2024-04-25T10:13:20.544Z,64.41
2024-04-25T10:15:53.940Z,72.87
2024-04-25T10:18:21.187Z,75.41
2024-04-25T10:20:48.642Z,75.48
2024-04-25T10:23:15.968Z,77.51
2024-04-25T10:25:54.274Z,77.55
2024-04-25T10:28:22.924Z,76.92
2024-04-25T10:30:56.739Z,76.08
2024-04-25T10:33:23.932Z,77.24
2024-04-25T10:35:54.556Z,76.40
2024-04-25T10:38:22.698Z,76.39
2024-04-25T10:40:51.177Z,69.09
2024-04-25T10:43:18.749Z,71.20
2024-04-25T10:45:46.319Z,76.72
2024-04-25T10:48:13.744Z,77.23
2024-04-25T10:50:44.026Z,74.14
2024-04-25T10:53:11.226Z,77.28
2024-04-25T10:55:40.810Z,76.98
2024-04-25T10:58:16.346Z,69.06
2024-04-25T11:00:44.763Z,77.14
2024-04-25T11:03:13.320Z,64.45
2024-04-25T11:05:42.376Z,73.00
2024-04-25T11:08:10.043Z,61.42
2024-04-25T11:10:37.234Z,61.85
2024-04-25T11:13:05.610Z,69.96
2024-04-25T11:15:33.069Z,65.12
2024-04-25T11:18:07.307Z,61.68
2024-04-25T11:20:40.924Z,73.53
2024-04-25T11:23:16.757Z,61.68
2024-04-25T11:25:49.742Z,59.94
2024-04-25T11:28:19.395Z,69.01
2024-04-25T11:30:46.523Z,75.41
2024-04-25T11:33:13.969Z,75.98
2024-04-25T11:35:47.218Z,75.37
2024-04-25T11:38:17.277Z,60.41
2024-04-25T11:40:45.928Z,67.23
2024-04-25T11:43:14.538Z,64.54
2024-04-25T11:45:45.317Z,65.77
2024-04-25T11:48:14.078Z,74.86
2024-04-25T11:50:41.604Z,76.02
2024-04-25T11:53:10.496Z,76.02
2024-04-25T11:55:41.688Z,60.81
2024-04-25T11:58:09.816Z,65.67
2024-04-25T12:00:38.028Z,69.24
2024-04-25T12:03:05.980Z,57.21
2024-04-25T12:05:33.364Z,64.67
2024-04-25T12:08:04.863Z,55.68
2024-04-25T12:10:32.478Z,73.23
2024-04-25T12:12:59.969Z,74.55
2024-04-25T12:15:27.295Z,74.36
2024-04-25T12:17:54.498Z,67.51
2024-04-25T12:20:21.728Z,74.51
2024-04-25T12:22:48.997Z,72.40
2024-04-25T12:25:16.230Z,58.85
2024-04-25T12:27:43.377Z,73.21
2024-04-25T12:30:10.864Z,73.09
2024-04-25T12:32:38.057Z,75.27
2024-04-25T12:35:05.411Z,75.03
2024-04-25T12:37:32.576Z,75.05
2024-04-25T12:39:59.695Z,59.85
2024-04-25T12:42:28.750Z,60.50
2024-04-25T12:44:55.972Z,56.89
2024-04-25T12:47:23.290Z,54.57
2024-04-25T12:49:50.631Z,53.38
2024-04-25T12:52:17.764Z,62.39
2024-04-25T12:54:44.882Z,66.98
2024-04-25T12:57:12.778Z,62.06
2024-04-25T12:59:40.027Z,62.14
2024-04-25T13:02:07.147Z,67.80
2024-04-25T13:04:34.316Z,59.31
2024-04-25T13:07:01.668Z,57.26
2024-04-25T13:09:30.187Z,71.34
2024-04-25T13:11:57.614Z,54.08
2024-04-25T13:14:24.927Z,50.29
2024-04-25T13:16:52.090Z,62.22
2024-04-25T13:19:19.353Z,71.07
2024-04-25T13:21:48.048Z,74.17
2024-04-25T13:24:15.162Z,74.65
2024-04-25T13:26:42.357Z,71.29
2024-04-25T13:29:09.497Z,70.20
2024-04-25T13:31:37.222Z,72.21
2024-04-25T13:34:04.629Z,54.72
2024-04-25T13:36:31.841Z,65.64
2024-04-25T13:38:58.952Z,56.13
2024-04-25T13:41:26.231Z,67.58
2024-04-25T13:43:53.372Z,69.20
2024-04-25T13:46:20.462Z,57.91
2024-04-25T13:48:47.681Z,55.68
2024-04-25T13:51:14.856Z,55.51
2024-04-25T13:53:42.040Z,58.29
2024-04-25T13:56:09.243Z,70.01
2024-04-25T13:58:38.680Z,71.40
2024-04-25T14:01:09.194Z,62.13
2024-04-25T14:03:36.582Z,56.03
2024-04-25T14:06:03.873Z,55.64
2024-04-25T14:08:31.032Z,59.90
2024-04-25T14:10:59.910Z,56.92
2024-04-25T14:13:27.288Z,53.89
2024-04-25T14:15:54.459Z,64.83
2024-04-25T14:18:26.721Z,55.78
2024-04-25T14:20:54.127Z,66.57
2024-04-25T14:23:21.368Z,68.30
2024-04-25T14:26:07.252Z,55.27
2024-04-25T14:28:46.633Z,56.12
2024-04-25T14:31:15.050Z,57.17
2024-04-25T14:33:42.581Z,55.32
2024-04-25T14:36:10.015Z,54.11
2024-04-25T14:38:37.351Z,54.56
2024-04-25T14:41:09.045Z,54.85
2024-04-25T14:43:37.234Z,52.97
2024-04-25T14:46:04.496Z,55.90
2024-04-25T14:48:32.048Z,55.09
2024-04-25T14:51:00.229Z,51.87
2024-04-25T14:53:28.488Z,53.77
2024-04-25T14:55:58.762Z,53.95
2024-04-25T14:58:25.889Z,67.36
2024-04-25T15:00:53.066Z,65.03
2024-04-25T15:03:20.200Z,55.92
2024-04-25T15:05:48.551Z,56.18
2024-04-25T15:08:16.789Z,55.33
2024-04-25T15:10:47.551Z,53.23
2024-04-25T15:13:23.710Z,55.32
2024-04-25T15:15:51.896Z,56.42
2024-04-25T15:18:19.308Z,55.86
2024-04-25T15:20:46.495Z,53.27
2024-04-25T15:23:13.829Z,60.64
2024-04-25T15:25:41.147Z,64.71
2024-04-25T15:28:09.370Z,54.46
2024-04-25T15:30:37.602Z,65.84
2024-04-25T15:33:05.033Z,58.67
2024-04-25T15:35:32.365Z,56.58
2024-04-25T15:37:59.521Z,69.15
2024-04-25T15:40:26.639Z,62.03
2024-04-25T15:42:53.744Z,65.09
2024-04-25T15:45:20.853Z,70.91
2024-04-25T15:47:48.085Z,70.13
2024-04-25T15:50:15.366Z,61.70
2024-04-25T15:52:42.508Z,60.13
2024-04-25T15:55:09.608Z,62.47
2024-04-25T15:57:36.749Z,72.03
2024-04-25T16:00:04.065Z,72.99
2024-04-25T16:02:31.717Z,74.21
2024-04-25T16:04:58.906Z,71.43
2024-04-25T16:07:26.013Z,74.96
2024-04-25T16:09:53.105Z,74.90
2024-04-25T16:12:20.364Z,74.54
2024-04-25T16:14:47.638Z,74.78
2024-04-25T16:17:14.970Z,74.47
2024-04-25T16:19:43.065Z,75.01
2024-04-25T16:22:10.463Z,74.63
2024-04-25T16:24:37.561Z,74.67
2024-04-25T16:27:07.321Z,74.83
2024-04-25T16:29:35.104Z,74.80
2024-04-25T16:32:02.394Z,74.93
2024-04-25T16:34:29.697Z,74.89
2024-04-25T16:36:56.832Z,74.87
2024-04-25T16:39:25.095Z,74.73
2024-04-25T16:41:52.519Z,74.29
2024-04-25T16:44:22.382Z,74.49
2024-04-25T16:46:49.719Z,75.20
2024-04-25T16:49:16.885Z,73.82
2024-04-25T16:51:44.001Z,72.56
2024-04-25T16:54:13.277Z,72.40
2024-04-25T16:56:40.575Z,72.47
2024-04-25T16:59:07.730Z,72.55
2024-04-25T17:01:34.836Z,72.20
2024-04-25T17:04:02.168Z,72.48
2024-04-25T17:06:29.471Z,72.50
2024-04-25T17:08:56.624Z,72.48
2024-04-25T17:11:28.876Z,67.91
2024-04-25T17:14:00.503Z,72.96
2024-04-25T17:16:28.125Z,72.67
2024-04-25T17:18:56.670Z,72.87
2024-04-25T17:21:26.853Z,72.54
2024-04-25T17:23:57.022Z,72.83
2024-04-25T17:26:24.590Z,73.18
2024-04-25T17:28:52.728Z,72.94
2024-04-25T17:31:20.119Z,72.88
2024-04-25T17:33:47.389Z,73.24
2024-04-25T17:36:14.592Z,73.15
2024-04-25T17:38:41.869Z,73.24
2024-04-25T17:41:09.015Z,73.33
2024-04-25T17:43:37.160Z,72.94
2024-04-25T17:46:06.650Z,73.06
2024-04-25T17:48:34.932Z,73.06
2024-04-25T17:51:03.262Z,73.43
2024-04-25T17:53:31.071Z,73.13
2024-04-25T17:55:58.590Z,73.00
2024-04-25T17:58:25.692Z,73.63
2024-04-25T18:00:53.665Z,73.29
2024-04-25T18:03:21.018Z,73.36
2024-04-25T18:05:48.364Z,73.71
2024-04-25T18:08:15.994Z,73.50
2024-04-25T18:10:44.512Z,73.40
2024-04-25T18:13:11.704Z,73.04
2024-04-25T18:15:39.926Z,73.56
2024-04-25T18:18:07.214Z,73.35
2024-04-25T18:20:34.480Z,73.51
2024-04-25T18:23:01.635Z,73.49
2024-04-25T18:25:28.793Z,73.52
2024-04-25T18:27:55.990Z,73.27
2024-04-25T18:30:23.158Z,73.54
2024-04-25T18:32:50.713Z,73.27
2024-04-25T18:35:18.479Z,73.04
2024-04-25T18:37:45.737Z,70.78
2024-04-25T18:40:14.267Z,78.42
2024-04-25T18:42:41.620Z,75.49
2024-04-25T18:45:09.925Z,74.51
2024-04-25T18:47:37.411Z,74.06
2024-04-25T18:50:05.165Z,73.64
2024-04-25T18:52:32.319Z,73.38
2024-04-25T18:54:59.591Z,73.51
2024-04-25T18:57:26.841Z,73.77
2024-04-25T18:59:54.058Z,73.32
2024-04-25T19:02:21.332Z,73.66
2024-04-25T19:04:48.545Z,73.35
2024-04-25T19:07:15.650Z,73.18
2024-04-25T19:09:42.799Z,73.39
2024-04-25T19:12:10.020Z,73.44
2024-04-25T19:14:37.623Z,73.38
2024-04-25T19:17:04.862Z,73.30
2024-04-25T19:19:32.016Z,73.59
2024-04-25T19:21:59.139Z,73.64
2024-04-25T19:24:26.314Z,73.34
2024-04-25T19:26:53.591Z,73.42
2024-04-25T19:29:21.066Z,73.24
2024-04-25T19:31:53.918Z,73.45
2024-04-25T19:34:23.835Z,73.20
2024-04-25T19:36:57.606Z,73.25
2024-04-25T19:39:24.842Z,73.03
2024-04-25T19:41:52.212Z,73.13
2024-04-25T19:44:19.531Z,73.11
2024-04-25T19:46:46.936Z,73.01
2024-04-25T19:49:14.339Z,65.31
2024-04-25T19:51:42.395Z,71.42
2024-04-25T19:54:09.719Z,78.55
2024-04-25T19:56:36.885Z,66.88
2024-04-25T19:59:04.066Z,74.18
2024-04-25T20:01:31.197Z,73.43
2024-04-25T20:03:58.280Z,73.75
2024-04-25T20:06:26.268Z,73.24
2024-04-25T20:08:55.189Z,73.33
2024-04-25T20:11:23.621Z,73.22
2024-04-25T20:13:51.251Z,73.08
2024-04-25T20:16:18.796Z,73.33
2024-04-25T20:19:04.611Z,72.95
2024-04-25T20:21:33.716Z,73.15
2024-04-25T20:24:04.946Z,73.26
2024-04-25T20:26:32.846Z,72.92
2024-04-25T20:29:00.267Z,73.17
2024-04-25T20:31:27.669Z,73.04
2024-04-25T20:33:55.130Z,73.30
2024-04-25T20:36:23.070Z,72.85
2024-04-25T20:38:51.867Z,72.57
2024-04-25T20:41:20.731Z,72.76
2024-04-25T20:43:47.993Z,72.76
2024-04-25T20:46:22.996Z,72.94
2024-04-25T20:48:52.081Z,72.77
2024-04-25T20:51:19.692Z,72.90
2024-04-25T20:53:46.885Z,72.68
2024-04-25T20:56:14.009Z,72.71
2024-04-25T20:58:41.383Z,72.85
2024-04-25T21:01:08.699Z,72.68
2024-04-25T21:03:35.996Z,72.74
2024-04-25T21:06:03.208Z,72.72
2024-04-25T21:08:32.742Z,72.43
2024-04-25T21:10:59.912Z,72.32
2024-04-25T21:13:31.192Z,72.61
2024-04-25T21:15:58.772Z,72.82
2024-04-25T21:18:26.525Z,72.28
2024-04-25T21:20:54.708Z,72.91
2024-04-25T21:23:22.247Z,72.45
2024-04-25T21:25:54.706Z,72.47
2024-04-25T21:28:27.541Z,72.31
2024-04-25T21:30:54.713Z,72.11
2024-04-25T21:33:22.987Z,72.46
2024-04-25T21:35:50.459Z,72.06
2024-04-25T21:38:18.295Z,72.31
2024-04-25T21:40:46.219Z,72.17
2024-04-25T21:43:13.542Z,72.15
2024-04-25T21:45:40.687Z,72.46
2024-04-25T21:48:08.300Z,72.19
2024-04-25T21:50:35.812Z,71.86
2024-04-25T21:53:02.997Z,72.09
2024-04-25T21:55:30.139Z,71.72
2024-04-25T21:57:59.815Z,71.62
2024-04-25T22:00:29.155Z,71.90
2024-04-25T22:02:59.848Z,72.00
2024-04-25T22:05:27.243Z,72.03
2024-04-25T22:07:54.459Z,71.54
2024-04-25T22:10:22.697Z,71.72
2024-04-25T22:12:50.137Z,71.73
2024-04-25T22:15:17.343Z,71.54
2024-04-25T22:17:44.623Z,71.79
2024-04-25T22:20:11.930Z,71.55
2024-04-25T22:22:41.677Z,71.64
2024-04-25T22:25:08.898Z,72.00
2024-04-25T22:27:42.963Z,71.46
2024-04-25T22:30:10.550Z,71.28
2024-04-25T22:32:37.802Z,71.76
2024-04-25T22:35:05.313Z,71.34
2024-04-25T22:37:32.500Z,71.67
2024-04-25T22:39:59.635Z,71.23
2024-04-25T22:42:26.761Z,71.26
2024-04-25T22:44:57.098Z,71.48
2024-04-25T22:47:27.518Z,70.58
2024-04-25T22:49:54.784Z,71.34
2024-04-25T22:52:22.743Z,71.29
2024-04-25T22:54:50.189Z,71.32
2024-04-25T22:57:17.397Z,71.32
2024-04-25T22:59:44.651Z,71.69
2024-04-25T23:02:11.823Z,71.86
2024-04-25T23:04:39.054Z,71.65
2024-04-25T23:07:06.856Z,71.55
2024-04-25T23:09:34.656Z,71.61
2024-04-25T23:12:02.003Z,71.69
2024-04-25T23:14:30.326Z,71.97
2024-04-25T23:16:57.671Z,71.90
2024-04-25T23:19:24.808Z,71.60
2024-04-25T23:21:51.931Z,71.77
2024-04-25T23:24:19.043Z,71.70
2024-04-25T23:26:46.213Z,71.87
2024-04-25T23:29:13.330Z,71.26
2024-04-25T23:31:40.475Z,71.36
2024-04-25T23:34:07.830Z,71.03
2024-04-25T23:36:41.145Z,71.27
2024-04-25T23:39:08.384Z,71.33
2024-04-25T23:41:35.523Z,71.62
2024-04-25T23:44:02.627Z,71.71
2024-04-25T23:46:29.977Z,71.26
2024-04-25T23:48:57.129Z,71.68
2024-04-25T23:51:25.476Z,71.34
2024-04-25T23:53:52.719Z,71.29
2024-04-25T23:56:19.938Z,70.95
2024-04-25T23:58:47.062Z,70.75
